Hovedside
METAR-TAF:

METAR-TAF

Lufthavner :

Ålesund, Norge

Ålesund lufthavn

breddegrad: 62-34N, lengdegrad: 006-07E, høyde over havet: 2 m

Gjeldene værobservasjon

Denne rapporten ble laget for 38 minutter siden, klokken 21:20 UTC
Vind 12 kt fra Øst-nordøst
Temperatur 15°C
Luftfuktighet 100%
Trykk 1000 hPa
Sikt 10 km eller mer
Få skyer i en høyde av 2000 ft

METAR: ENAL 182120Z 06012KT 9999 FEW020 15/15 Q1000

Tid: 23:58 (21:58 UTC)

Varsel

Denne rapporten ble laget for 4 timer og 58 minutter siden, klokken 17:00 UTC
Varsel gyldig fra 18. klokken 18 UTC til 18. klokken 22 UTC
Vind 15 kt fra Øst-nordøst
Sikt 10 km eller mer
Få skyer i en høyde av 2000 ft, Tårnskyer (cumulus).
Spredte skyer i en høyde av 5000 ft
Blir
fra 18. klokken 20 UTC til 18. klokken 22 UTC
Vind 6 kt fra skiftende retning

TAF: ENAL 181700Z 1818/1822 06015KT 9999 FEW020TCU SCT050 BECMG 1820/1822 VRB06KT

Værobservasjoner og værvarsel for over 4000 flyplasser (METAR- og TAF-rapporter).

Tilgjengelige stasjoner er representert av de røde og gule prikkene på kartet.

Hold musepekeren over prikken for å se navnet på stasjonen.

Klikk så for å se værobservasjoner og -varsler.

For å forandre kartet kan du klikke på den grønne knappen med svart kryss for å zoome inn, på den grønne knappen med strek for å zoome ut, eller på de grønne pilene for å se tilstøtende kart.


METAR-TAF: